createdAt,value
2019-06-08T00:00:03.519Z,96912.80
2019-06-08T00:02:30.381Z,96914.16
2019-06-08T00:04:57.192Z,96908.84
2019-06-08T00:07:23.951Z,96906.68
2019-06-08T00:09:50.788Z,96906.88
2019-06-08T00:12:17.616Z,96908.84
2019-06-08T00:14:44.438Z,96906.28
2019-06-08T00:17:24.294Z,96912.18
2019-06-08T00:19:39.994Z,96908.62
2019-06-08T00:22:07.009Z,96906.06
2019-06-08T00:24:33.818Z,96908.21
2019-06-08T00:27:00.962Z,96901.13
2019-06-08T00:29:27.777Z,96898.58
2019-06-08T00:31:54.635Z,96902.52
2019-06-08T00:34:22.657Z,96897.20
2019-06-08T00:36:49.596Z,96897.97
2019-06-08T00:39:16.793Z,96902.09
2019-06-08T00:41:43.907Z,96902.52
2019-06-08T00:44:10.622Z,96899.13
2019-06-08T00:46:37.526Z,96906.22
2019-06-08T00:49:04.235Z,96901.08
2019-06-08T00:51:31.008Z,96905.79
2019-06-08T00:53:57.976Z,96902.45
2019-06-08T00:56:25.996Z,96905.01
2019-06-08T00:58:53.149Z,96907.94
2019-06-08T01:01:20.755Z,96902.03
2019-06-08T01:03:48.579Z,96904.19
2019-06-08T01:06:15.400Z,96898.11
2019-06-08T01:08:42.358Z,96903.00
2019-06-08T01:11:09.184Z,96906.73
2019-06-08T01:13:35.900Z,96906.15
2019-06-08T01:16:03.178Z,96914.00
2019-06-08T01:18:29.886Z,96913.61
2019-06-08T01:20:56.908Z,96916.95
2019-06-08T01:23:23.659Z,96915.96
2019-06-08T01:25:50.483Z,96916.34
2019-06-08T01:28:17.334Z,96914.97
2019-06-08T01:30:44.681Z,96912.40
2019-06-08T01:33:11.528Z,96913.95
2019-06-08T01:35:38.555Z,96909.83
2019-06-08T01:38:05.321Z,96919.43
2019-06-08T01:40:32.356Z,96913.72
2019-06-08T01:42:59.106Z,96914.69
2019-06-08T01:45:32.894Z,96918.00
2019-06-08T01:48:18.837Z,96916.97
2019-06-08T01:50:34.259Z,96927.98
2019-06-08T01:53:01.457Z,96926.05
2019-06-08T01:55:29.083Z,96928.56
2019-06-08T01:57:56.739Z,96932.89
2019-06-08T02:00:40.202Z,96927.56
2019-06-08T02:02:53.680Z,96928.91
2019-06-08T02:05:20.903Z,96932.86
2019-06-08T02:07:48.143Z,96931.25
2019-06-08T02:10:15.657Z,96932.58
2019-06-08T02:12:42.480Z,96932.92
2019-06-08T02:15:10.178Z,96934.47
2019-06-08T02:17:37.140Z,96930.88
2019-06-08T02:20:07.660Z,96934.77
2019-06-08T02:22:35.128Z,96939.46
2019-06-08T02:25:04.244Z,96928.63
2019-06-08T02:27:31.410Z,96929.17
2019-06-08T02:29:58.256Z,96933.28
2019-06-08T02:32:24.987Z,96936.98
2019-06-08T02:34:51.808Z,96931.88
2019-06-08T02:37:18.840Z,96936.78
2019-06-08T02:39:45.788Z,96940.11
2019-06-08T02:42:12.703Z,96948.15
2019-06-08T02:44:40.653Z,96944.59
2019-06-08T02:47:07.709Z,96946.72
2019-06-08T02:49:35.429Z,96943.77
2019-06-08T02:52:02.961Z,96943.19
2019-06-08T02:54:32.426Z,96943.81
2019-06-08T02:57:04.264Z,96948.15
2019-06-08T02:59:38.028Z,96949.31
2019-06-08T03:02:05.112Z,96949.89
2019-06-08T03:04:38.756Z,96941.59
2019-06-08T03:07:08.832Z,96958.09
2019-06-08T03:09:38.656Z,96953.17
2019-06-08T03:12:05.808Z,96958.07
2019-06-08T03:14:33.435Z,96962.34
2019-06-08T03:17:01.812Z,96965.42
2019-06-08T03:19:28.660Z,96963.51
2019-06-08T03:21:55.681Z,96967.37
2019-06-08T03:24:22.549Z,96964.41
2019-06-08T03:26:49.485Z,96967.30
2019-06-08T03:29:16.336Z,96971.51
2019-06-08T03:31:53.516Z,96973.95
2019-06-08T03:34:11.824Z,96974.50
2019-06-08T03:36:46.738Z,96977.13
2019-06-08T03:39:07.824Z,96985.28
2019-06-08T03:41:36.238Z,96984.55
2019-06-08T03:44:04.092Z,96988.97
2019-06-08T03:46:30.801Z,96983.07
2019-06-08T03:48:57.554Z,96986.42
2019-06-08T03:51:24.487Z,96988.78
2019-06-08T03:53:51.224Z,96984.03
2019-06-08T03:56:18.082Z,96984.24
2019-06-08T03:58:47.821Z,96984.39
2019-06-08T04:01:14.343Z,96985.19
2019-06-08T04:03:41.737Z,96985.36
2019-06-08T04:06:08.790Z,96994.64
2019-06-08T04:08:37.777Z,96991.29
2019-06-08T04:11:04.969Z,96989.33
2019-06-08T04:13:31.811Z,96994.58
2019-06-08T04:15:58.665Z,96992.14
2019-06-08T04:18:25.499Z,96997.16
2019-06-08T04:20:52.343Z,97006.00
2019-06-08T04:23:19.145Z,97010.52
2019-06-08T04:25:47.710Z,97019.23
2019-06-08T04:28:14.754Z,97021.85
2019-06-08T04:30:43.000Z,97016.28
2019-06-08T04:33:10.444Z,97015.66
2019-06-08T04:35:38.214Z,97028.16
2019-06-08T04:38:05.492Z,97025.80
2019-06-08T04:40:32.406Z,97028.45
2019-06-08T04:42:59.354Z,97034.98
2019-06-08T04:45:26.200Z,97039.92
2019-06-08T04:47:53.134Z,97042.50
2019-06-08T04:50:23.339Z,97037.22
2019-06-08T04:52:49.895Z,97043.23
2019-06-08T04:55:17.363Z,97040.53
2019-06-08T04:57:47.400Z,97039.03
2019-06-08T05:00:14.211Z,97039.03
2019-06-08T05:02:42.226Z,97042.10
2019-06-08T05:05:10.221Z,97040.31
2019-06-08T05:07:39.216Z,97048.77
2019-06-08T05:10:07.530Z,97058.59
2019-06-08T05:12:34.481Z,97065.81
2019-06-08T05:15:01.527Z,97062.05
2019-06-08T05:17:28.580Z,97064.28
2019-06-08T05:19:55.517Z,97061.30
2019-06-08T05:22:22.460Z,97068.94
2019-06-08T05:24:50.071Z,97071.02
2019-06-08T05:27:17.360Z,97076.69
2019-06-08T05:29:45.324Z,97080.03
2019-06-08T05:32:12.261Z,97078.87
2019-06-08T05:34:39.336Z,97080.19
2019-06-08T05:37:06.307Z,97084.57
2019-06-08T05:39:33.151Z,97082.39
2019-06-08T05:41:59.973Z,97082.46
2019-06-08T05:44:26.790Z,97082.41
2019-06-08T05:46:53.628Z,97085.05
2019-06-08T05:49:20.694Z,97081.16
2019-06-08T05:51:47.889Z,97093.91
2019-06-08T05:54:14.672Z,97088.31
2019-06-08T05:56:41.972Z,97091.22
2019-06-08T05:59:08.967Z,97093.55
2019-06-08T06:01:35.913Z,97100.13
2019-06-08T06:04:02.872Z,97087.55
2019-06-08T06:06:29.704Z,97099.95
2019-06-08T06:08:56.787Z,97095.40
2019-06-08T06:11:23.569Z,97100.21
2019-06-08T06:13:51.508Z,97096.30
2019-06-08T06:16:18.387Z,97105.05
2019-06-08T06:18:45.565Z,97109.64
2019-06-08T06:21:12.703Z,97103.47
2019-06-08T06:23:41.049Z,97106.52
2019-06-08T06:26:08.212Z,97103.02
2019-06-08T06:28:34.944Z,97108.53
2019-06-08T06:31:01.854Z,97111.22
2019-06-08T06:33:28.896Z,97104.84
2019-06-08T06:35:55.724Z,97108.30
2019-06-08T06:38:22.603Z,97104.06
2019-06-08T06:40:50.068Z,97106.13
2019-06-08T06:43:16.999Z,97105.23
2019-06-08T06:45:44.374Z,97109.54
2019-06-08T06:48:11.463Z,97110.77
2019-06-08T06:50:38.172Z,97113.27
2019-06-08T06:53:05.149Z,97110.98
2019-06-08T06:55:32.203Z,97113.37
2019-06-08T06:57:59.283Z,97107.76
2019-06-08T07:00:31.366Z,97108.42
2019-06-08T07:02:59.894Z,97109.53
2019-06-08T07:05:26.614Z,97117.81
2019-06-08T07:07:54.519Z,97118.84
2019-06-08T07:10:21.353Z,97119.83
2019-06-08T07:12:48.656Z,97118.15
2019-06-08T07:15:21.259Z,97120.50
2019-06-08T07:17:48.047Z,97125.34
2019-06-08T07:20:14.891Z,97128.13
2019-06-08T07:22:42.036Z,97135.00
2019-06-08T07:25:09.107Z,97133.80
2019-06-08T07:27:36.022Z,97143.59
2019-06-08T07:30:05.080Z,97138.94
2019-06-08T07:32:32.112Z,97147.25
2019-06-08T07:34:59.436Z,97149.48
2019-06-08T07:37:26.427Z,97147.42
2019-06-08T07:39:53.639Z,97146.28
2019-06-08T07:42:20.696Z,97148.01
2019-06-08T07:44:48.818Z,97151.47
2019-06-08T07:47:15.711Z,97149.19
2019-06-08T07:49:42.427Z,97147.69
2019-06-08T07:52:10.908Z,97149.42
2019-06-08T07:54:37.923Z,97144.61
2019-06-08T07:57:04.926Z,97149.66
2019-06-08T07:59:31.873Z,97146.70
2019-06-08T08:01:58.678Z,97146.53
2019-06-08T08:04:25.385Z,97143.65
2019-06-08T08:06:52.505Z,97150.13
2019-06-08T08:09:19.460Z,97149.80
2019-06-08T08:11:46.542Z,97146.25
2019-06-08T08:14:13.302Z,97151.04
2019-06-08T08:16:40.295Z,97147.58
2019-06-08T08:19:07.157Z,97156.41
2019-06-08T08:21:33.919Z,97153.94
2019-06-08T08:24:01.680Z,97154.15
2019-06-08T08:26:31.267Z,97156.07
2019-06-08T08:29:02.500Z,97164.67
2019-06-08T08:31:27.831Z,97158.20
2019-06-08T08:33:55.849Z,97157.41
2019-06-08T08:36:23.828Z,97164.67
2019-06-08T08:38:51.851Z,97161.95
2019-06-08T08:41:18.687Z,97158.34
2019-06-08T08:43:45.415Z,97159.07
2019-06-08T08:46:12.130Z,97157.20
2019-06-08T08:48:38.881Z,97157.53
2019-06-08T08:51:05.593Z,97158.41
2019-06-08T08:53:32.349Z,97160.56
2019-06-08T08:56:01.283Z,97156.77
2019-06-08T08:58:28.086Z,97161.17
2019-06-08T09:00:55.362Z,97165.37
2019-06-08T09:03:30.931Z,97160.38
2019-06-08T09:05:52.438Z,97163.41
2019-06-08T09:08:23.030Z,97160.54
2019-06-08T09:10:48.525Z,97157.52
2019-06-08T09:13:15.312Z,97149.48
2019-06-08T09:15:42.233Z,97151.31
2019-06-08T09:18:09.001Z,97148.76
2019-06-08T09:20:37.934Z,97146.03
2019-06-08T09:23:14.706Z,97156.38
2019-06-08T09:25:33.157Z,97157.59
2019-06-08T09:28:02.876Z,97158.61
2019-06-08T09:30:28.772Z,97153.50
2019-06-08T09:32:57.183Z,97152.46
2019-06-08T09:35:24.266Z,97154.38
2019-06-08T09:37:53.173Z,97164.77
2019-06-08T09:40:19.877Z,97174.35
2019-06-08T09:42:46.631Z,97172.56
2019-06-08T09:45:13.809Z,97167.86
2019-06-08T09:47:40.715Z,97170.63
2019-06-08T09:50:09.485Z,97169.52
2019-06-08T09:52:40.979Z,97174.86
2019-06-08T09:55:09.136Z,97171.31
2019-06-08T09:57:35.511Z,97169.72
2019-06-08T10:00:15.338Z,97173.17
2019-06-08T10:02:34.606Z,97173.90
2019-06-08T10:05:04.059Z,97171.38
2019-06-08T10:07:31.337Z,97173.58
2019-06-08T10:10:00.399Z,97175.00
2019-06-08T10:12:28.227Z,97169.91
2019-06-08T10:14:56.636Z,97177.90
2019-06-08T10:17:23.822Z,97176.68
2019-06-08T10:19:50.540Z,97176.68
2019-06-08T10:22:18.176Z,97181.29
2019-06-08T10:24:45.364Z,97182.76
2019-06-08T10:27:12.360Z,97180.89
2019-06-08T10:29:39.648Z,97185.78
2019-06-08T10:32:08.991Z,97187.36
2019-06-08T10:34:38.402Z,97188.50
2019-06-08T10:37:12.533Z,97185.73
2019-06-08T10:39:33.900Z,97184.84
2019-06-08T10:42:03.164Z,97194.17
2019-06-08T10:44:29.470Z,97187.16
2019-06-08T10:47:54.124Z,97189.06
2019-06-08T10:50:23.350Z,97187.34
2019-06-08T10:52:50.387Z,97179.72
2019-06-08T10:55:18.141Z,97190.63
2019-06-08T10:57:47.613Z,97182.94
2019-06-08T11:00:23.975Z,97179.50
2019-06-08T11:02:50.934Z,97182.60
2019-06-08T11:05:18.304Z,97183.41
2019-06-08T11:07:47.875Z,97179.84
2019-06-08T11:10:14.413Z,97180.75
2019-06-08T11:12:41.132Z,97183.38
2019-06-08T11:15:11.402Z,97178.34
2019-06-08T11:17:37.879Z,97181.69
2019-06-08T11:20:07.390Z,97188.46
2019-06-08T11:22:34.518Z,97190.06
2019-06-08T11:25:03.754Z,97191.02
2019-06-08T11:27:30.976Z,97193.84
2019-06-08T11:29:57.711Z,97192.90
2019-06-08T11:32:24.541Z,97188.34
2019-06-08T11:34:51.645Z,97196.04
2019-06-08T11:37:20.948Z,97193.55
2019-06-08T11:39:49.193Z,97191.42
2019-06-08T11:42:16.032Z,97200.45
2019-06-08T11:44:42.883Z,97200.16
2019-06-08T11:47:12.566Z,97198.77
2019-06-08T11:49:38.525Z,97200.62
2019-06-08T11:52:06.737Z,97201.34
2019-06-08T11:54:37.257Z,97205.42
2019-06-08T11:57:03.046Z,97206.80
2019-06-08T11:59:31.167Z,97203.55
2019-06-08T12:01:58.632Z,97201.88
2019-06-08T12:04:25.621Z,97205.66
2019-06-08T12:06:52.519Z,97212.53
2019-06-08T12:09:19.262Z,97207.01
2019-06-08T12:11:48.050Z,97212.41
2019-06-08T12:14:14.832Z,97208.14
2019-06-08T12:16:41.713Z,97203.40
2019-06-08T12:19:13.199Z,97197.94
2019-06-08T12:21:37.237Z,97203.02
2019-06-08T12:24:04.313Z,97207.39
2019-06-08T12:26:31.332Z,97210.25
2019-06-08T12:29:01.212Z,97213.26
2019-06-08T12:31:28.114Z,97204.96
2019-06-08T12:33:55.051Z,97203.97
2019-06-08T12:36:22.008Z,97203.50
2019-06-08T12:38:48.831Z,97218.25
2019-06-08T12:41:16.009Z,97210.41
2019-06-08T12:43:42.927Z,97211.89
2019-06-08T12:46:12.599Z,97218.02
2019-06-08T12:48:38.679Z,97214.42
2019-06-08T12:51:05.606Z,97213.17
2019-06-08T12:53:32.460Z,97217.06
2019-06-08T12:55:59.382Z,97219.13
2019-06-08T12:58:27.607Z,97220.44
2019-06-08T13:00:54.575Z,97221.77
2019-06-08T13:03:21.363Z,97217.63
2019-06-08T13:05:48.074Z,97215.75
2019-06-08T13:08:15.310Z,97222.14
2019-06-08T13:10:43.212Z,97223.07
2019-06-08T13:13:11.139Z,97228.01
2019-06-08T13:15:39.268Z,97233.34
2019-06-08T13:18:08.510Z,97234.99
2019-06-08T13:20:34.736Z,97243.85
2019-06-08T13:23:01.621Z,97251.77
2019-06-08T13:25:37.560Z,97250.11
2019-06-08T13:27:58.388Z,97252.53
2019-06-08T13:30:26.359Z,97254.45
2019-06-08T13:32:54.231Z,97257.28
2019-06-08T13:35:22.452Z,97249.86
2019-06-08T13:37:49.402Z,97260.69
2019-06-08T13:40:20.137Z,97248.79
2019-06-08T13:42:48.350Z,97261.22
2019-06-08T13:45:16.205Z,97269.05
2019-06-08T13:47:43.600Z,97275.02
2019-06-08T13:50:12.915Z,97289.06
2019-06-08T13:52:39.702Z,97291.92
2019-06-08T13:55:07.456Z,97294.00
2019-06-08T13:57:34.287Z,97297.16
2019-06-08T14:00:05.081Z,97305.66
2019-06-08T14:02:32.097Z,97309.72
2019-06-08T14:04:59.245Z,97309.84
2019-06-08T14:07:31.789Z,97308.10
2019-06-08T14:09:58.247Z,97307.73
2019-06-08T14:12:28.265Z,97320.42
2019-06-08T14:14:54.247Z,97334.89
2019-06-08T14:17:23.818Z,97340.78
2019-06-08T14:19:51.673Z,97344.72
2019-06-08T14:22:21.349Z,97357.59
2019-06-08T14:24:47.823Z,97363.09
2019-06-08T14:27:14.992Z,97355.28
2019-06-08T14:29:41.895Z,97353.68
2019-06-08T14:32:08.883Z,97363.08
2019-06-08T14:34:38.492Z,97380.67
2019-06-08T14:37:04.791Z,97387.53
2019-06-08T14:39:31.977Z,97393.58
2019-06-08T14:41:59.108Z,97404.48
2019-06-08T14:44:31.297Z,97406.33
2019-06-08T14:46:54.600Z,97411.54
2019-06-08T14:49:26.433Z,97414.08
2019-06-08T14:51:50.935Z,97425.66
2019-06-08T14:54:23.403Z,97435.02
2019-06-08T14:56:48.542Z,97431.52
2019-06-08T14:59:15.427Z,97431.55
2019-06-08T15:01:42.350Z,97433.13
2019-06-08T15:04:09.297Z,97446.78
2019-06-08T15:06:38.194Z,97450.74
2019-06-08T15:09:05.681Z,97456.05
2019-06-08T15:11:35.147Z,97454.41
2019-06-08T15:14:01.465Z,97452.78
2019-06-08T15:16:30.612Z,97455.43
2019-06-08T15:19:00.141Z,97445.08
2019-06-08T15:21:29.515Z,97454.19
2019-06-08T15:23:54.480Z,97455.13
2019-06-08T15:26:29.873Z,97456.12
2019-06-08T15:28:49.990Z,97462.05
2019-06-08T15:31:18.315Z,97467.77
2019-06-08T15:41:41.947Z,97490.43
2019-06-08T15:44:08.816Z,97494.84
2019-06-08T15:46:37.964Z,97492.11
2019-06-08T15:49:04.569Z,97491.55
2019-06-08T15:51:35.478Z,97491.35
2019-06-08T15:54:01.448Z,97493.93
2019-06-08T15:56:43.201Z,97492.73
2019-06-08T15:58:58.811Z,97508.77
2019-06-08T16:01:27.191Z,97502.44
2019-06-08T16:03:54.144Z,97508.18
2019-06-08T16:06:20.901Z,97503.63
2019-06-08T16:08:48.060Z,97506.59
2019-06-08T16:11:14.827Z,97511.55
2019-06-08T16:13:41.864Z,97508.58
2019-06-08T16:16:10.643Z,97510.39
2019-06-08T16:18:37.430Z,97512.20
2019-06-08T16:21:04.450Z,97524.08
2019-06-08T16:23:33.671Z,97529.05
2019-06-08T16:26:00.658Z,97534.81
2019-06-08T16:28:27.744Z,97534.80
2019-06-08T16:30:55.063Z,97540.17
2019-06-08T16:33:21.883Z,97539.77
2019-06-08T16:35:48.742Z,97540.00
2019-06-08T16:38:15.460Z,97541.97
2019-06-08T16:40:42.571Z,97539.00
2019-06-08T16:43:09.389Z,97533.27
2019-06-08T16:45:36.330Z,97536.83
2019-06-08T16:48:03.452Z,97539.00
2019-06-08T16:50:30.371Z,97546.52
2019-06-08T16:52:57.352Z,97546.52
2019-06-08T16:55:24.090Z,97553.05
2019-06-08T16:57:50.938Z,97549.09
2019-06-08T17:00:30.745Z,97552.05
2019-06-08T17:02:47.119Z,97560.77
2019-06-08T17:05:14.148Z,97565.34
2019-06-08T17:07:40.862Z,97563.35
2019-06-08T17:10:08.284Z,97564.34
2019-06-08T17:12:35.367Z,97564.35
2019-06-08T17:15:04.141Z,97567.31
2019-06-08T17:17:32.082Z,97570.67
2019-06-08T17:19:58.875Z,97570.47
2019-06-08T17:22:25.613Z,97577.78
2019-06-08T17:24:52.428Z,97576.62
2019-06-08T17:27:26.706Z,97580.36
2019-06-08T17:29:47.897Z,97583.13
2019-06-08T17:32:14.866Z,97575.81
2019-06-08T17:34:42.466Z,97581.73
2019-06-08T17:37:09.593Z,97576.03
2019-06-08T17:39:36.400Z,97573.05
2019-06-08T17:42:03.842Z,97585.08
2019-06-08T17:44:30.566Z,97588.23
2019-06-08T17:46:57.382Z,97583.48
2019-06-08T17:49:24.099Z,97589.03
2019-06-08T17:51:50.977Z,97587.23
2019-06-08T17:54:17.731Z,97592.40
2019-06-08T17:56:44.491Z,97593.37
2019-06-08T17:59:11.207Z,97593.95
2019-06-08T18:01:37.956Z,97596.13
2019-06-08T18:04:04.814Z,97601.08
2019-06-08T18:06:31.986Z,97600.70
2019-06-08T18:08:59.074Z,97601.69
2019-06-08T18:11:27.643Z,97597.72
2019-06-08T18:13:54.713Z,97594.96
2019-06-08T18:16:21.975Z,97613.52
2019-06-08T18:18:48.892Z,97614.70
2019-06-08T18:21:17.825Z,97612.73
2019-06-08T18:23:45.316Z,97614.28
2019-06-08T18:26:12.184Z,97612.12
2019-06-08T18:28:40.909Z,97612.69
2019-06-08T18:31:07.814Z,97616.84
2019-06-08T18:33:34.739Z,97619.59
2019-06-08T18:36:01.981Z,97617.21
2019-06-08T18:38:28.901Z,97620.37
2019-06-08T18:40:57.495Z,97617.38
2019-06-08T18:43:24.400Z,97621.31
2019-06-08T18:45:51.378Z,97617.36
2019-06-08T18:48:18.545Z,97615.15
2019-06-08T18:50:48.426Z,97624.63
2019-06-08T18:53:15.016Z,97631.09
2019-06-08T18:55:43.948Z,97636.98
2019-06-08T18:58:21.053Z,97636.77
2019-06-08T19:00:42.016Z,97639.13
2019-06-08T19:03:08.373Z,97643.64
2019-06-08T19:05:40.209Z,97640.47
2019-06-08T19:08:07.472Z,97655.46
2019-06-08T19:10:37.809Z,97662.58
2019-06-08T19:13:05.219Z,97668.06
2019-06-08T19:18:52.840Z,97674.93
2019-06-08T19:21:19.248Z,97680.00
2019-06-08T19:23:49.250Z,97687.70
2019-06-08T19:26:17.083Z,97688.03
2019-06-08T19:28:47.640Z,97697.31
2019-06-08T19:31:12.386Z,97695.09
2019-06-08T19:33:40.115Z,97700.41
2019-06-08T19:36:07.751Z,97699.41
2019-06-08T19:38:34.831Z,97709.06
2019-06-08T19:41:01.556Z,97716.72
2019-06-08T19:43:28.296Z,97715.91
2019-06-08T19:45:57.820Z,97719.41
2019-06-08T19:48:23.863Z,97713.42
2019-06-08T19:50:54.268Z,97720.90
2019-06-08T19:53:19.799Z,97728.74
2019-06-08T19:55:52.039Z,97728.03
2019-06-08T19:58:17.916Z,97733.75
2019-06-08T20:00:44.285Z,97732.69
2019-06-08T20:03:11.282Z,97732.25
2019-06-08T20:05:38.210Z,97734.77
2019-06-08T20:08:07.883Z,97736.52
2019-06-08T20:10:34.378Z,97737.05
2019-06-08T20:13:01.125Z,97741.97
2019-06-08T20:15:28.068Z,97741.92
2019-06-08T20:17:57.274Z,97747.80
2019-06-08T20:20:23.565Z,97760.65
2019-06-08T20:22:52.019Z,97756.93
2019-06-08T20:25:19.039Z,97760.48
2019-06-08T20:27:48.424Z,97762.45
2019-06-08T20:30:17.266Z,97759.48
2019-06-08T20:32:44.450Z,97755.90
2019-06-08T20:35:11.395Z,97754.41
2019-06-08T20:37:38.250Z,97754.91
2019-06-08T20:40:11.151Z,97752.87
2019-06-08T20:42:34.665Z,97757.92
2019-06-08T20:45:03.094Z,97758.42
2019-06-08T20:47:29.902Z,97758.77
2019-06-08T20:49:58.250Z,97760.81
2019-06-08T20:52:25.523Z,97760.78
2019-06-08T20:54:53.491Z,97768.41
2019-06-08T20:57:20.791Z,97770.13
2019-06-08T20:59:50.192Z,97780.34
2019-06-08T21:02:17.857Z,97778.32
2019-06-08T21:04:46.750Z,97779.45
2019-06-08T21:07:13.502Z,97784.02
2019-06-08T21:09:40.467Z,97786.80
2019-06-08T21:12:07.190Z,97789.86
2019-06-08T21:14:34.123Z,97797.25
2019-06-08T21:17:00.844Z,97802.93
2019-06-08T21:19:28.187Z,97803.44
2019-06-08T21:21:58.468Z,97811.25
2019-06-08T21:24:24.724Z,97808.45
2019-06-08T21:26:55.197Z,97819.03
2019-06-08T21:29:20.330Z,97819.97
2019-06-08T21:31:49.291Z,97824.75
2019-06-08T21:34:18.125Z,97829.32
2019-06-08T21:36:44.605Z,97828.73
2019-06-08T21:39:11.368Z,97826.78
2019-06-08T21:41:38.285Z,97829.90
2019-06-08T21:44:05.188Z,97832.08
2019-06-08T21:46:31.893Z,97828.57
2019-06-08T21:49:00.484Z,97834.73
2019-06-08T21:51:27.588Z,97833.36
2019-06-08T21:53:54.420Z,97833.28
2019-06-08T21:56:21.550Z,97830.70
2019-06-08T21:58:49.752Z,97828.97
2019-06-08T22:01:17.843Z,97832.31
2019-06-08T22:03:47.056Z,97830.91
2019-06-08T22:06:13.535Z,97837.02
2019-06-08T22:08:40.268Z,97838.03
2019-06-08T22:11:08.661Z,97835.50
2019-06-08T22:13:37.460Z,97838.11
2019-06-08T22:16:07.749Z,97831.72
2019-06-08T22:18:33.658Z,97838.59
2019-06-08T22:21:01.174Z,97835.18
2019-06-08T22:23:28.223Z,97835.84
2019-06-08T22:25:56.022Z,97830.34
2019-06-08T22:28:23.738Z,97827.15
2019-06-08T22:30:52.112Z,97834.98
2019-06-08T22:33:19.272Z,97839.47
2019-06-08T22:35:47.771Z,97828.95
2019-06-08T22:38:17.592Z,97830.48
2019-06-08T22:40:43.702Z,97835.10
2019-06-08T22:43:10.734Z,97840.73
2019-06-08T22:45:37.677Z,97838.50
2019-06-08T22:48:04.618Z,97840.23
2019-06-08T22:50:31.369Z,97845.28
2019-06-08T22:52:59.460Z,97848.89
2019-06-08T22:55:27.743Z,97852.06
2019-06-08T22:57:55.430Z,97852.13
2019-06-08T23:00:24.815Z,97854.93
2019-06-08T23:02:51.142Z,97854.55
2019-06-08T23:05:18.616Z,97846.91
2019-06-08T23:07:45.624Z,97842.81
2019-06-08T23:10:13.287Z,97853.73
2019-06-08T23:12:40.120Z,97849.51
2019-06-08T23:15:07.898Z,97850.81
2019-06-08T23:17:34.771Z,97852.66
2019-06-08T23:20:02.072Z,97849.27
2019-06-08T23:25:17.838Z,97836.94
2019-06-08T23:27:44.187Z,97846.55
2019-06-08T23:30:11.535Z,97847.50
2019-06-08T23:32:38.818Z,97850.36
2019-06-08T23:35:07.931Z,97854.60
2019-06-08T23:37:37.278Z,97854.16
2019-06-08T23:40:05.491Z,97860.72
2019-06-08T23:42:32.660Z,97867.05
2019-06-08T23:45:00.618Z,97865.49
2019-06-08T23:47:27.939Z,97865.96
2019-06-08T23:49:54.802Z,97862.56
2019-06-08T23:52:21.545Z,97861.39
2019-06-08T23:54:48.373Z,97853.16
2019-06-08T23:57:15.199Z,97848.27
2019-06-08T23:59:42.003Z,97849.19
